SBI2122 URKA-UUDD
Flight info
| Callsign | SBI2122 |
|---|---|
| Flight time | N/A |
| Altitude | 36000 |
| Route | RUDOL2E RUDOL W316 AMEPU A100 KL L91 KANON T748 PEPOR T611 TUKMO N50 OLOPI OLOPI3L |
| Aircraft | A320/M-SDE3FGHIRWY/LB1 |
Departure
| Time | N/A |
|---|---|
| Airport | Anapa Vityazevo Airport (URKA) |
Arrival
| Time | 2026-05-03 20:36 |
|---|---|
| Airport | Domodedovo International Airport (UUDD) |
| Time | Latitude | Longitude | Altitude | Speed | Heading |
|---|---|---|---|---|---|
| 2026-05-03 20:15 | 54.49161 | 38.67742 | 13773 ft | 323 kts | 334° |
| 2026-05-03 20:15 | 54.51140 | 38.66042 | 13335 ft | 321 kts | 334° |
| 2026-05-03 20:15 | 54.53161 | 38.64302 | 12894 ft | 319 kts | 334° |
| 2026-05-03 20:15 | 54.55136 | 38.62591 | 12481 ft | 317 kts | 333° |
| 2026-05-03 20:16 | 54.57073 | 38.60912 | 12070 ft | 315 kts | 333° |
| 2026-05-03 20:16 | 54.59032 | 38.59218 | 11652 ft | 313 kts | 333° |
| 2026-05-03 20:16 | 54.60964 | 38.57545 | 11436 ft | 304 kts | 333° |
| 2026-05-03 20:16 | 54.62825 | 38.55929 | 11309 ft | 294 kts | 333° |
| 2026-05-03 20:17 | 54.64634 | 38.54359 | 11065 ft | 288 kts | 333° |
| 2026-05-03 20:17 | 54.66373 | 38.52844 | 10925 ft | 279 kts | 333° |
| 2026-05-03 20:17 | 54.68215 | 38.51607 | 10687 ft | 296 kts | 342° |
| 2026-05-03 20:17 | 54.70225 | 38.50526 | 10436 ft | 302 kts | 342° |
| 2026-05-03 20:18 | 54.72234 | 38.49468 | 10192 ft | 302 kts | 342° |
| 2026-05-03 20:18 | 54.74243 | 38.48419 | 9966 ft | 298 kts | 342° |
| 2026-05-03 20:18 | 54.76193 | 38.47401 | 9841 ft | 287 kts | 342° |
| 2026-05-03 20:18 | 54.78058 | 38.46422 | 9710 ft | 280 kts | 342° |
| 2026-05-03 20:19 | 54.79936 | 38.45431 | 9571 ft | 278 kts | 342° |
| 2026-05-03 20:19 | 54.81760 | 38.44465 | 9438 ft | 277 kts | 342° |
| 2026-05-03 20:19 | 54.83605 | 38.43484 | 9301 ft | 276 kts | 342° |
| 2026-05-03 20:19 | 54.85441 | 38.42508 | 9171 ft | 275 kts | 342° |
| 2026-05-03 20:20 | 54.87273 | 38.41534 | 9043 ft | 275 kts | 342° |
| 2026-05-03 20:20 | 54.89095 | 38.40565 | 8912 ft | 274 kts | 342° |
| 2026-05-03 20:20 | 54.90919 | 38.39594 | 8785 ft | 273 kts | 342° |
| 2026-05-03 20:20 | 54.92718 | 38.38636 | 8652 ft | 273 kts | 342° |
| 2026-05-03 20:21 | 54.94534 | 38.37672 | 8519 ft | 272 kts | 342° |
| 2026-05-03 20:21 | 54.96345 | 38.36709 | 8392 ft | 271 kts | 342° |
| 2026-05-03 20:21 | 54.98151 | 38.35746 | 8261 ft | 271 kts | 342° |
| 2026-05-03 20:21 | 54.99932 | 38.34795 | 8130 ft | 270 kts | 342° |
| 2026-05-03 20:22 | 55.01727 | 38.33833 | 8008 ft | 269 kts | 341° |
| 2026-05-03 20:22 | 55.03516 | 38.32872 | 7876 ft | 268 kts | 341° |
| 2026-05-03 20:22 | 55.05303 | 38.31910 | 7752 ft | 268 kts | 341° |
| 2026-05-03 20:22 | 55.07081 | 38.30955 | 7624 ft | 267 kts | 341° |
| 2026-05-03 20:23 | 55.08852 | 38.30003 | 7498 ft | 266 kts | 341° |
| 2026-05-03 20:23 | 55.10623 | 38.29052 | 7372 ft | 266 kts | 341° |
| 2026-05-03 20:23 | 55.12390 | 38.28100 | 7247 ft | 265 kts | 341° |
| 2026-05-03 20:23 | 55.14149 | 38.27146 | 7123 ft | 264 kts | 341° |
| 2026-05-03 20:24 | 55.15884 | 38.26204 | 6998 ft | 264 kts | 341° |
| 2026-05-03 20:24 | 55.17648 | 38.25252 | 6877 ft | 263 kts | 341° |
| 2026-05-03 20:24 | 55.19401 | 38.24306 | 6755 ft | 262 kts | 341° |
| 2026-05-03 20:24 | 55.21122 | 38.23378 | 6632 ft | 262 kts | 341° |
| 2026-05-03 20:25 | 55.22862 | 38.22437 | 6499 ft | 261 kts | 341° |
| 2026-05-03 20:25 | 55.24599 | 38.21493 | 6386 ft | 260 kts | 341° |
| 2026-05-03 20:25 | 55.26325 | 38.20555 | 6258 ft | 260 kts | 341° |
| 2026-05-03 20:25 | 55.28041 | 38.19626 | 6127 ft | 249 kts | 341° |
| 2026-05-03 20:26 | 55.29643 | 38.18760 | 5994 ft | 238 kts | 341° |
| 2026-05-03 20:26 | 55.31188 | 38.17922 | 5976 ft | 226 kts | 340° |
| 2026-05-03 20:26 | 55.32606 | 38.16775 | 5924 ft | 226 kts | 325° |
| 2026-05-03 20:26 | 55.33898 | 38.15225 | 5789 ft | 226 kts | 324° |
| 2026-05-03 20:27 | 55.35204 | 38.13655 | 5659 ft | 225 kts | 324° |
| 2026-05-03 20:27 | 55.36502 | 38.12100 | 5535 ft | 225 kts | 324° |
| 2026-05-03 20:27 | 55.37784 | 38.10568 | 5405 ft | 225 kts | 324° |
| 2026-05-03 20:27 | 55.39085 | 38.09013 | 5285 ft | 225 kts | 324° |
| 2026-05-03 20:28 | 55.40382 | 38.07462 | 5162 ft | 225 kts | 324° |
| 2026-05-03 20:28 | 55.41679 | 38.05911 | 5034 ft | 225 kts | 323° |
| 2026-05-03 20:28 | 55.42892 | 38.04235 | 4906 ft | 217 kts | 309° |
| 2026-05-03 20:28 | 55.43767 | 38.02113 | 4785 ft | 212 kts | 303° |
| 2026-05-03 20:29 | 55.44591 | 38.00021 | 4662 ft | 204 kts | 303° |
| 2026-05-03 20:29 | 55.45377 | 37.98025 | 4533 ft | 197 kts | 303° |
| 2026-05-03 20:29 | 55.46149 | 37.96063 | 4388 ft | 191 kts | 303° |
| 2026-05-03 20:29 | 55.46899 | 37.94161 | 4275 ft | 185 kts | 303° |
| 2026-05-03 20:30 | 55.47625 | 37.92312 | 4144 ft | 181 kts | 303° |
| 2026-05-03 20:30 | 55.48337 | 37.90493 | 4012 ft | 179 kts | 302° |
| 2026-05-03 20:30 | 55.49047 | 37.88684 | 3893 ft | 179 kts | 302° |
| 2026-05-03 20:30 | 55.49751 | 37.86886 | 3770 ft | 179 kts | 302° |
| 2026-05-03 20:31 | 55.50462 | 37.85068 | 3644 ft | 179 kts | 302° |
| 2026-05-03 20:31 | 55.51169 | 37.83257 | 3521 ft | 179 kts | 302° |
| 2026-05-03 20:31 | 55.51871 | 37.81460 | 3400 ft | 179 kts | 302° |
| 2026-05-03 20:31 | 55.52573 | 37.79657 | 3274 ft | 178 kts | 302° |
| 2026-05-03 20:32 | 55.53237 | 37.77804 | 3070 ft | 179 kts | 288° |
| 2026-05-03 20:32 | 55.53143 | 37.75719 | 2880 ft | 176 kts | 236° |
| 2026-05-03 20:32 | 55.52126 | 37.74638 | 2864 ft | 176 kts | 187° |
| 2026-05-03 20:32 | 55.50980 | 37.75318 | 2738 ft | 179 kts | 147° |
| 2026-05-03 20:33 | 55.50211 | 37.77012 | 2546 ft | 180 kts | 127° |
| 2026-05-03 20:33 | 55.49307 | 37.78495 | 2352 ft | 171 kts | 153° |
| 2026-05-03 20:33 | 55.48347 | 37.79653 | 2131 ft | 165 kts | 151° |
| 2026-05-03 20:33 | 55.47434 | 37.80774 | 1927 ft | 155 kts | 152° |
| 2026-05-03 20:34 | 55.46566 | 37.81828 | 1725 ft | 148 kts | 154° |
| 2026-05-03 20:34 | 55.45724 | 37.82846 | 1509 ft | 147 kts | 152° |
| 2026-05-03 20:34 | 55.44887 | 37.83856 | 1315 ft | 144 kts | 149° |
| 2026-05-03 20:34 | 55.44076 | 37.84835 | 1117 ft | 143 kts | 148° |
| 2026-05-03 20:35 | 55.43528 | 37.85496 | 993 ft | 140 kts | 147° |
| 2026-05-03 20:35 | 55.42477 | 37.86763 | 739 ft | 137 kts | 147° |
| 2026-05-03 20:35 | 55.41694 | 37.87707 | 597 ft | 131 kts | 146° |
| 2026-05-03 20:35 | 55.41045 | 37.88489 | 579 ft | 89 kts | 146° |
| 2026-05-03 20:36 | 55.40680 | 37.88932 | 578 ft | 40 kts | 144° |
| 2026-05-03 20:36 | 55.40525 | 37.89137 | 573 ft | 26 kts | 133° |
| 2026-05-03 20:36 | 55.40422 | 37.89374 | 569 ft | 17 kts | 116° |
| 2026-05-03 20:36 | 55.40396 | 37.89470 | 572 ft | 6 kts | 115° |
| 2026-05-03 20:37 | 55.40392 | 37.89564 | 568 ft | 9 kts | 61° |
| 2026-05-03 20:37 | 55.40444 | 37.89576 | 565 ft | 8 kts | 337° |
| 2026-05-03 20:37 | 55.40489 | 37.89527 | 570 ft | 7 kts | 326° |
| 2026-05-03 20:37 | 55.40525 | 37.89485 | 568 ft | 5 kts | 326° |
| 2026-05-03 20:38 | 55.40562 | 37.89439 | 569 ft | 7 kts | 325° |
| 2026-05-03 20:38 | 55.40597 | 37.89397 | 569 ft | 7 kts | 325° |
| 2026-05-03 20:38 | 55.40633 | 37.89352 | 571 ft | 5 kts | 325° |
| 2026-05-03 20:38 | 55.40667 | 37.89311 | 569 ft | 5 kts | 326° |
| 2026-05-03 20:39 | 55.40716 | 37.89272 | 570 ft | 10 kts | 351° |
| 2026-05-03 20:39 | 55.40764 | 37.89316 | 575 ft | 7 kts | 55° |
| 2026-05-03 20:39 | 55.40797 | 37.89404 | 570 ft | 9 kts | 56° |
| 2026-05-03 20:39 | 55.40832 | 37.89493 | 570 ft | 8 kts | 54° |
| 2026-05-03 20:40 | 55.40874 | 37.89567 | 574 ft | 10 kts | 49° |
| 2026-05-03 20:40 | 55.40915 | 37.89668 | 570 ft | 10 kts | 55° |
| 2026-05-03 20:40 | 55.40952 | 37.89760 | 572 ft | 9 kts | 56° |
| 2026-05-03 20:40 | 55.40986 | 37.89845 | 569 ft | 9 kts | 47° |
| 2026-05-03 20:41 | 55.41045 | 37.89835 | 574 ft | 8 kts | 328° |
| 2026-05-03 20:41 | 55.41073 | 37.89801 | 573 ft | 2 kts | 326° |
| 2026-05-03 20:41 | 55.41082 | 37.89791 | 573 ft | 5 kts | 325° |
| 2026-05-03 20:41 | 55.41104 | 37.89763 | 577 ft | 2 kts | 325° |
| 2026-05-03 20:42 | 55.41129 | 37.89734 | 578 ft | 4 kts | 328° |
| 2026-05-03 20:42 | 55.41165 | 37.89695 | 583 ft | 7 kts | 337° |
| 2026-05-03 20:42 | 55.41205 | 37.89732 | 577 ft | 7 kts | 47° |
| 2026-05-03 20:42 | 55.41213 | 37.89808 | 576 ft | 6 kts | 95° |
| 2026-05-03 20:43 | 55.41214 | 37.89885 | 577 ft | 7 kts | 85° |
| 2026-05-03 20:43 | 55.41215 | 37.89910 | 574 ft | 0 kts | 85° |